Flight Track Log - Related Links

Times and Time Zones

All times are in EDT time to prevent confusion due to time zone crossing. See the EJA929 flight status page for this flight to view local times or setup timezone preferences in your user account.

Time Position Orientation Groundspeed Altitude Reporting Facility
EDT Latitude Longitude Course Direction KTS MPH feet Rate Location/Type
Thu 12:13:56 PM 41.2911 -95.8978 183° South 171 197 1,400  Level Minneapolis Center
Thu 12:14:50 PM 41.2392 -95.9011 183° South 204 235 4,500 3,154 Climbing Minneapolis Center
Thu 12:15:14 PM 41.2253 -95.8994 175° South 214 246 5,500 3,907 Climbing Minneapolis Center
Thu 12:16:16 PM 41.1567 -95.9008 181° South 228 262 10,100 3,726 Climbing Minneapolis Center
Thu 12:17:18 PM 41.1008 -96.0008 233° Southwest 285 328 13,200 2,516 Climbing Minneapolis Center
Thu 12:18:20 PM 41.0556 -96.1122 242° Southwest 326 375 15,300 1,790 Climbing Minneapolis Center
Thu 12:19:22 PM 41.0250 -96.2339 252° West 344 396 16,900 1,548 Climbing Minneapolis Center
Thu 12:20:24 PM 40.9997 -96.3642 256° West 358 412 18,500 1,597 Climbing Minneapolis Center
Thu 12:21:26 PM 40.9644 -96.4986 251° West 378 435 20,200 1,597 Climbing Minneapolis Center
Thu 12:22:28 PM 40.9036 -96.6233 237° Southwest 399 459 21,800 1,548 Climbing Minneapolis Center
Thu 12:23:30 PM 40.8431 -96.7539 239° Southwest 410 472 23,400 1,548 Climbing Minneapolis Center
Thu 12:24:32 PM 40.7806 -96.8867 238° Southwest 420 483 25,000 1,694 Climbing Minneapolis Center
Thu 12:25:34 PM 40.7417 -97.0700 254° West 433 498 26,900 1,694 Climbing Minneapolis Center
Thu 12:26:36 PM 40.7214 -97.2275 260° West 435 501 28,500 1,645 Climbing Minneapolis Center
Thu 12:27:38 PM 40.6981 -97.4006 260° West 438 504 30,300 1,645 Climbing Minneapolis Center
Thu 12:28:40 PM 40.6792 -97.5611 261° West 441 507 31,900 1,548 Climbing Minneapolis Center
Thu 12:29:42 PM 40.6575 -97.7231 260° West 446 513 33,500 1,548 Climbing Minneapolis Center
Thu 12:30:44 PM 40.6356 -97.8819 260° West 443 510 35,100 1,548 Climbing Minneapolis Center
Thu 12:31:46 PM 40.6131 -98.0381 259° West 436 502 36,700 1,500 Climbing Minneapolis Center
Thu 12:32:48 PM 40.5928 -98.1936 260° West 432 497 38,200 1,452 Climbing Minneapolis Center
Thu 12:33:50 PM 40.5708 -98.3442 259° West 423 487 39,700 1,452 Climbing Minneapolis Center
Thu 12:34:52 PM 40.5506 -98.4925 260° West 414 476 41,200 1,597 Climbing Minneapolis Center
Thu 12:35:54 PM 40.5272 -98.6608 260° West 396 456 43,000 871 Climbing Minneapolis Center
Thu 12:36:56 PM 40.5075 -98.7989 259° West 386 444 43,000  Level Minneapolis Center
Thu 12:37:59 PM 40.4861 -98.9447 259° West 396 456 43,000  Level Minneapolis Center
Thu 12:39:01 PM 40.4631 -99.1047 259° West 413 475 43,000  Level Minneapolis Center
Thu 12:40:03 PM 40.4406 -99.2544 259° West 428 493 43,000  Level Minneapolis Center
Thu 12:41:05 PM 40.4175 -99.4144 259° West 439 505 43,000  Level Minneapolis Center
Thu 12:42:07 PM 40.3925 -99.5775 259° West 449 517 43,000  Level Minneapolis Center
Thu 12:43:09 PM 40.3633 -99.7736 259° West 454 522 43,000  Level Minneapolis Center
Thu 12:44:11 PM 40.3383 -99.9378 259° West 457 526 43,000  Level Minneapolis Center
Thu 12:45:13 PM 40.3119 -100.1014 258° West 458 527 43,000  Level Minneapolis Center
Thu 12:46:15 PM 40.2878 -100.2661 259° West 459 528 43,000  Level Minneapolis Center
Thu 12:47:17 PM 40.2631 -100.4303 259° West 459 528 43,000  Level Minneapolis Center
Thu 12:48:40 PM 40.2236 -100.6553 257° West 457 526 43,000  Level Denver Center
Thu 12:49:42 PM 40.1936 -100.8397 258° West 461 531 43,000  Level Denver Center
Thu 12:50:44 PM 40.1683 -100.9969 258° West 461 531 43,000  Level Denver Center
Thu 12:51:46 PM 40.1383 -101.1803 258° West 461 531 43,000  Level Denver Center
Thu 12:52:49 PM 40.1117 -101.3367 257° West 461 531 43,000  Level Denver Center
Thu 12:53:51 PM 40.0856 -101.4936 258° West 460 529 43,000  Level Denver Center
Thu 12:54:53 PM 40.0542 -101.6758 257° West 460 529 43,000  Level Denver Center
Thu 12:55:55 PM 40.0278 -101.8333 258° West 464 534 43,000  Level Denver Center
Thu 12:56:57 PM 39.9956 -102.0156 257° West 462 532 43,000  Level Denver Center
Thu 12:57:59 PM 39.9681 -102.1719 257° West 463 533 43,000  Level Denver Center
Thu 12:59:01 PM 39.9358 -102.3542 257° West 462 532 43,000  Level Denver Center
Thu 01:00:03 PM 39.9078 -102.5111 257° West 464 534 43,000  Level Denver Center
Thu 01:01:05 PM 39.8758 -102.6953 257° West 467 537 43,000  Level Denver Center
Thu 01:02:07 PM 39.8439 -102.8647 256° West 465 535 43,000  Level Denver Center
Thu 01:03:09 PM 39.8147 -103.0292 257° West 467 537 43,000  Level Denver Center
Thu 01:04:11 PM 39.7833 -103.1925 256° West 467 537 43,000  Level Denver Center
Thu 01:05:13 PM 39.7544 -103.3550 257° West 464 534 43,000  Level Denver Center
Thu 01:06:15 PM 39.7228 -103.5186 256° West 466 536 43,000  Level Denver Center
Thu 01:07:17 PM 39.6864 -103.7128 256° West 463 533 43,000  Level Denver Center
Thu 01:08:20 PM 39.6558 -103.8772 256° West 466 536 43,000  Level Denver Center
Thu 01:09:22 PM 39.6247 -104.0400 256° West 464 534 43,000  Level Denver Center
Thu 01:10:24 PM 39.5922 -104.2022 255° West 461 531 43,000  Level Denver Center
Thu 01:11:26 PM 39.5608 -104.3656 256° West 470 541 43,000  Level Denver Center
Thu 01:12:28 PM 39.5236 -104.5542 256° West 477 549 43,000  Level Denver Center
Thu 01:13:30 PM 39.4911 -104.7186 256° West 472 543 43,000  Level Denver Center
Thu 01:14:32 PM 39.4586 -104.8825 256° West 470 541 43,000  Level Denver Center
Thu 01:15:34 PM 39.4228 -105.0606 255° West 474 545 43,000  Level Denver Center
Thu 01:16:36 PM 39.3872 -105.2292 255° West 467 537 43,000  Level Denver Center
Thu 01:17:38 PM 39.3553 -105.3886 256° West 458 527 43,000  Level Denver Center
Thu 01:18:40 PM 39.3219 -105.5503 255° West 463 533 43,000  Level Denver Center
Thu 01:19:42 PM 39.2878 -105.7117 255° West 462 532 43,000  Level Denver Center
Thu 01:20:44 PM 39.2544 -105.8733 255° West 467 537 43,000  Level Denver Center
Thu 01:21:47 PM 39.2147 -106.0342 252° West 470 541 43,000  Level Denver Center
Thu 01:22:49 PM 39.1703 -106.2114 252° West 471 542 43,000  Level Denver Center
Thu 01:23:51 PM 39.1242 -106.3911 252° West 472 543 43,000  Level Denver Center
Thu 01:24:53 PM 39.0844 -106.5467 252° West 475 547 43,000  Level Denver Center
Thu 01:25:55 PM 39.0367 -106.7283 251° West 479 551 43,000  Level Denver Center
Thu 01:26:57 PM 38.9961 -106.8847 252° West 481 554 43,000  Level Denver Center
Thu 01:27:59 PM 38.9483 -107.0667 251° West 481 554 43,000  Level Denver Center
Thu 01:29:01 PM 38.9064 -107.2247 251° West 486 559 43,000  Level Denver Center
Thu 01:30:03 PM 38.8578 -107.4086 251° West 485 558 43,000  Level Denver Center
Thu 01:31:05 PM 38.8158 -107.5661 251° West 485 558 43,000  Level Denver Center
Thu 01:32:07 PM 38.7736 -107.7236 251° West 487 560 43,000  Level Denver Center
Thu 01:33:10 PM 38.7236 -107.9092 251° West 492 566 43,000  Level Denver Center
Thu 01:34:12 PM 38.6814 -108.0672 251° West 491 565 43,000  Level Denver Center
Thu 01:35:14 PM 38.6311 -108.2511 251° West 489 563 43,000  Level Denver Center
Thu 01:36:16 PM 38.5875 -108.4089 251° West 490 564 43,000  Level Denver Center
Thu 01:37:18 PM 38.5367 -108.5931 251° West 491 565 43,000  Level Denver Center
Thu 01:38:20 PM 38.4925 -108.7503 250° West 490 564 43,000  Level Denver Center
Thu 01:39:22 PM 38.4414 -108.9350 251° West 492 566 43,000  Level Denver Center
Thu 01:40:24 PM 38.3958 -109.0919 250° West 493 567 43,000  Level Denver Center
Thu 01:41:26 PM 38.3517 -109.2508 251° West 494 568 43,000  Level Denver Center
Thu 01:42:28 PM 38.2986 -109.4308 249° West 488 562 43,000  Level Denver Center
Thu 01:43:30 PM 38.2539 -109.5883 250° West 492 566 43,000  Level Denver Center
Thu 01:44:32 PM 38.2000 -109.7717 250° West 494 568 43,000  Level Denver Center
Thu 01:45:35 PM 38.1550 -109.9281 250° West 493 567 43,000  Level Denver Center
Thu 01:46:37 PM 38.1014 -110.1119 250° West 498 573 43,000  Level Denver Center
Thu 01:47:39 PM 38.0550 -110.2689 249° West 495 570 43,000  Level Denver Center
Thu 01:48:41 PM 38.0264 -110.4586 259° West 489 563 43,000  Level Denver Center
Thu 01:49:43 PM 38.0058 -110.6219 261° West 489 563 43,000 -242 Level Denver Center
Thu 01:50:45 PM 37.9569 -110.8025 251° West 476 548 42,500 -758 Descending Denver Center
Thu 01:51:18 PM 37.9364 -110.8764 251° West 475 547 41,800 -1,389 Descending Salt Lake Center
Thu 01:52:20 PM 37.8903 -111.0158 247° West 466 536 40,300 -1,645 Descending Salt Lake Center
Thu 01:53:22 PM 37.8272 -111.2056 247° West 484 557 38,400 -1,694 Descending Salt Lake Center
Thu 01:54:24 PM 37.7711 -111.3711 247° West 507 583 36,800 -1,597 Descending Salt Lake Center
Thu 01:55:26 PM 37.7156 -111.5392 247° West 516 594 35,100 -1,632 Descending Salt Lake Center
Thu 01:56:29 PM 37.6681 -111.7092 251° West 514 592 33,400 -1,694 Descending Salt Lake Center
Thu 01:57:30 PM 37.6419 -111.8831 259° West 506 582 31,600 -1,902 Descending Salt Lake Center
Thu 01:58:32 PM 37.6131 -112.0558 258° West 506 582 29,500 -2,274 Descending Salt Lake Center
Thu 01:59:34 PM 37.5794 -112.2569 258° West 493 567 26,900 -2,352 Descending Salt Lake Center
Thu 02:00:37 PM 37.5517 -112.4200 258° West 481 554 24,600 -2,160 Descending Salt Lake Center
Thu 02:01:39 PM 37.5256 -112.5736 258° West 459 528 22,400 -2,129 Descending Salt Lake Center
Thu 02:02:41 PM 37.5003 -112.7178 258° West 431 496 20,200 -2,177 Descending Salt Lake Center
Thu 02:03:43 PM 37.4500 -112.8486 244° Southwest 413 475 17,900 -2,032 Descending Salt Lake Center
Thu 02:04:45 PM 37.4811 -112.9758 287° West 385 443 16,000 -968 Descending Salt Lake Center
Thu 02:05:47 PM 37.4897 -113.0875 276° West 350 403 15,900 -871 Descending Salt Lake Center
Thu 02:06:49 PM 37.4264 -113.1761 228° Southwest 342 394 14,200 -1,887 Descending Salt Lake Center
Thu 02:07:51 PM 37.3419 -113.2647 220° Southwest 333 383 12,000 -2,129 Descending Salt Lake Center

Login

Don't have an account? Register now (free) for customized features, flight alerts, and more!